Time,TemperatureF,DewpointF,PressureIn,WindDirection,WindDirectionDegrees,WindSpeedMPH,WindSpeedGustMPH,Humidity,HourlyPrecipIn,Conditions,Clouds,dailyrainin,SolarRadiationWatts/m^2,SoftwareType,DateUTC
2013-04-20 00:02:00,68.0,59.0,-100.00,South,179,12.0,30.0,72,0.00,,,0.00,45.000000,,2013-04-20 00:02:00,
2013-04-20 01:32:00,67.0,60.0,-100.00,SSE,164,14.0,27.0,78,-99.99,,,0.00,0.000000,,2013-04-20 01:32:00,
2013-04-20 01:42:00,67.0,60.0,-100.00,SSE,164,14.0,27.0,78,-99.99,,,0.00,0.000000,,2013-04-20 01:42:00,
2013-04-20 01:52:00,67.0,60.0,-100.00,SSE,164,14.0,27.0,78,-99.99,,,0.00,0.000000,,2013-04-20 01:52:00,
2013-04-20 02:02:00,67.0,60.0,-100.00,SSE,164,14.0,27.0,78,-99.99,,,0.00,0.000000,,2013-04-20 02:02:00,
2013-04-20 02:32:00,64.0,61.0,-100.00,SW,227,10.0,38.0,89,0.13,,,0.13,0.000000,,2013-04-20 02:32:00,
2013-04-20 02:42:00,64.0,61.0,-100.00,SW,227,10.0,38.0,89,0.13,,,0.13,0.000000,,2013-04-20 02:42:00,
2013-04-20 02:52:00,64.0,61.0,-100.00,SW,227,10.0,38.0,89,0.13,,,0.13,0.000000,,2013-04-20 02:52:00,
2013-04-20 03:01:00,64.0,61.0,-100.00,SW,227,10.0,38.0,89,0.13,,,0.13,0.000000,,2013-04-20 03:01:00,
2013-04-20 03:33:00,62.0,60.0,-100.00,WSW,252,5.0,12.0,93,0.12,,,0.25,0.000000,,2013-04-20 03:33:00,
2013-04-20 03:43:00,62.0,60.0,-100.00,WSW,252,5.0,12.0,93,0.12,,,0.25,0.000000,,2013-04-20 03:43:00,
2013-04-20 03:53:00,62.0,60.0,-100.00,WSW,252,5.0,12.0,93,0.12,,,0.25,0.000000,,2013-04-20 03:53:00,
2013-04-20 04:03:00,62.0,60.0,-100.00,WSW,252,5.0,12.0,93,0.12,,,0.25,0.000000,,2013-04-20 04:03:00,
2013-04-20 04:33:00,55.0,50.0,-100.00,SW,218,10.0,23.0,83,0.07,,,0.32,0.000000,,2013-04-20 04:33:00,
2013-04-20 04:43:00,55.0,50.0,-100.00,SW,218,10.0,23.0,83,0.07,,,0.32,0.000000,,2013-04-20 04:43:00,
2013-04-20 04:53:00,55.0,50.0,-100.00,SW,218,10.0,23.0,83,0.07,,,0.32,0.000000,,2013-04-20 04:53:00,
2013-04-20 05:02:00,55.0,50.0,-100.00,SW,218,10.0,23.0,83,0.07,,,0.32,0.000000,,2013-04-20 05:02:00,
2013-04-20 05:32:00,52.0,48.0,-100.00,South,179,4.0,16.0,87,0.02,,,0.34,0.000000,,2013-04-20 05:32:00,
2013-04-20 05:43:00,52.0,48.0,-100.00,South,179,4.0,16.0,87,0.02,,,0.34,0.000000,,2013-04-20 05:43:00,
2013-04-20 05:52:00,52.0,48.0,-100.00,South,179,4.0,16.0,87,0.02,,,0.34,0.000000,,2013-04-20 05:52:00,
2013-04-20 06:02:00,52.0,48.0,-100.00,South,179,4.0,16.0,87,0.02,,,0.34,0.000000,,2013-04-20 06:02:00,
2013-04-20 06:32:00,51.0,48.0,-100.00,WNW,284,4.0,11.0,89,0.03,,,0.37,0.000000,,2013-04-20 06:32:00,
2013-04-20 06:42:00,51.0,48.0,-100.00,WNW,284,4.0,11.0,89,0.03,,,0.37,0.000000,,2013-04-20 06:42:00,
2013-04-20 06:52:00,51.0,48.0,-100.00,WNW,284,4.0,11.0,89,0.03,,,0.37,0.000000,,2013-04-20 06:52:00,
2013-04-20 07:02:00,51.0,48.0,-100.00,WNW,284,4.0,11.0,89,0.03,,,0.37,0.000000,,2013-04-20 07:02:00,
2013-04-20 07:32:00,47.0,45.0,-100.00,North,3,3.0,9.0,93,0.07,,,-99.99,0.000000,,2013-04-20 07:32:00,
2013-04-20 07:42:00,47.0,45.0,-100.00,North,3,3.0,9.0,93,0.07,,,-99.99,0.000000,,2013-04-20 07:42:00,
2013-04-20 07:52:00,47.0,45.0,-100.00,North,3,3.0,9.0,93,0.07,,,-99.99,0.000000,,2013-04-20 07:52:00,
2013-04-20 08:02:00,47.0,45.0,-100.00,North,3,3.0,9.0,93,0.07,,,-99.99,0.000000,,2013-04-20 08:02:00,
2013-04-20 08:32:00,45.0,43.0,-100.00,NE,48,3.0,12.0,91,0.04,,,0.48,0.000000,,2013-04-20 08:32:00,
2013-04-20 08:42:00,45.0,43.0,-100.00,NE,48,3.0,12.0,91,0.04,,,0.48,0.000000,,2013-04-20 08:42:00,
2013-04-20 08:52:00,45.0,43.0,-100.00,NE,48,3.0,12.0,91,0.04,,,0.48,0.000000,,2013-04-20 08:52:00,
2013-04-20 09:02:00,45.0,43.0,-100.00,NE,48,3.0,12.0,91,0.04,,,0.48,0.000000,,2013-04-20 09:02:00,
2013-04-20 09:33:00,44.0,42.0,-100.00,NNE,23,1.0,7.0,93,0.02,,,0.50,0.000000,,2013-04-20 09:33:00,
2013-04-20 09:43:00,44.0,42.0,-100.00,NNE,23,1.0,7.0,93,0.02,,,0.50,0.000000,,2013-04-20 09:43:00,
2013-04-20 09:53:00,44.0,42.0,-100.00,NNE,23,1.0,7.0,93,0.02,,,0.50,0.000000,,2013-04-20 09:53:00,
2013-04-20 10:03:00,44.0,42.0,-100.00,NNE,23,1.0,7.0,93,0.02,,,0.50,0.000000,,2013-04-20 10:03:00,
2013-04-20 10:33:00,43.0,41.0,-100.00,WSW,254,0.0,4.0,94,0.03,,,0.53,0.000000,,2013-04-20 10:33:00,
2013-04-20 10:42:00,43.0,41.0,-100.00,WSW,254,0.0,4.0,94,0.03,,,0.53,0.000000,,2013-04-20 10:42:00,
2013-04-20 10:53:00,43.0,41.0,-100.00,WSW,254,0.0,4.0,94,0.03,,,0.53,0.000000,,2013-04-20 10:53:00,
2013-04-20 11:02:00,43.0,41.0,-100.00,WSW,254,0.0,4.0,94,0.03,,,0.53,0.000000,,2013-04-20 11:02:00,
2013-04-20 11:32:00,44.0,42.0,-100.00,SE,136,1.0,3.0,94,0.00,,,0.53,18.000000,,2013-04-20 11:32:00,
2013-04-20 11:42:00,44.0,42.0,-100.00,SE,136,1.0,3.0,94,0.00,,,0.53,18.000000,,2013-04-20 11:42:00,
2013-04-20 11:53:00,44.0,42.0,-100.00,SE,136,1.0,3.0,94,0.00,,,0.53,18.000000,,2013-04-20 11:53:00,
2013-04-20 12:02:00,44.0,42.0,-100.00,SE,136,1.0,3.0,94,0.00,,,0.53,18.000000,,2013-04-20 12:02:00,
2013-04-20 12:32:00,46.0,44.0,-100.00,SW,214,1.0,6.0,92,0.00,,,0.53,101.000000,,2013-04-20 12:32:00,
2013-04-20 12:42:00,46.0,44.0,-100.00,SW,214,1.0,6.0,92,0.00,,,0.53,101.000000,,2013-04-20 12:42:00,
2013-04-20 12:52:00,46.0,44.0,-100.00,SW,214,1.0,6.0,92,0.00,,,0.53,101.000000,,2013-04-20 12:52:00,
2013-04-20 13:02:00,46.0,44.0,-100.00,SW,214,1.0,6.0,92,0.00,,,0.53,101.000000,,2013-04-20 13:02:00,
2013-04-20 13:32:00,50.0,39.0,-100.00,West,267,8.0,15.0,67,0.00,,,-99.99,323.000000,,2013-04-20 13:32:00,
2013-04-20 13:42:00,50.0,39.0,-100.00,West,267,8.0,15.0,67,0.00,,,-99.99,323.000000,,2013-04-20 13:42:00,
2013-04-20 13:52:00,50.0,39.0,-100.00,West,267,8.0,15.0,67,0.00,,,-99.99,323.000000,,2013-04-20 13:52:00,
2013-04-20 14:02:00,50.0,39.0,-100.00,West,267,8.0,15.0,67,0.00,,,-99.99,323.000000,,2013-04-20 14:02:00,
2013-04-20 14:32:00,50.0,28.0,-100.00,West,263,12.0,21.0,43,0.00,,,0.53,376.000000,,2013-04-20 14:32:00,
2013-04-20 14:42:00,50.0,28.0,-100.00,West,263,12.0,21.0,43,0.00,,,0.53,376.000000,,2013-04-20 14:42:00,
2013-04-20 14:52:00,50.0,28.0,-100.00,West,263,12.0,21.0,43,0.00,,,0.53,376.000000,,2013-04-20 14:52:00,
2013-04-20 15:02:00,50.0,28.0,-100.00,West,263,12.0,21.0,43,0.00,,,0.53,376.000000,,2013-04-20 15:02:00,
2013-04-20 15:34:00,50.0,25.0,-100.00,West,265,12.0,25.0,38,0.00,,,0.53,393.000000,,2013-04-20 15:34:00,
2013-04-20 15:43:00,50.0,25.0,-100.00,West,265,12.0,25.0,38,0.00,,,0.53,393.000000,,2013-04-20 15:43:00,
2013-04-20 15:53:00,50.0,25.0,-100.00,West,265,12.0,25.0,38,0.00,,,0.53,393.000000,,2013-04-20 15:53:00,
2013-04-20 16:03:00,50.0,25.0,-100.00,West,265,12.0,25.0,38,0.00,,,0.53,393.000000,,2013-04-20 16:03:00,
2013-04-20 16:33:00,54.0,30.0,-100.00,West,266,11.0,23.0,39,0.00,,,0.53,684.000000,,2013-04-20 16:33:00,
2013-04-20 16:42:00,54.0,30.0,-100.00,West,266,11.0,23.0,39,0.00,,,0.53,684.000000,,2013-04-20 16:42:00,
2013-04-20 16:53:00,54.0,30.0,-100.00,West,266,11.0,23.0,39,0.00,,,0.53,684.000000,,2013-04-20 16:53:00,
2013-04-20 17:02:00,54.0,30.0,-100.00,West,266,11.0,23.0,39,0.00,,,0.53,684.000000,,2013-04-20 17:02:00,
2013-04-20 17:33:00,56.0,29.0,-100.00,West,265,11.0,22.0,36,0.00,,,0.53,772.000000,,2013-04-20 17:33:00,
2013-04-20 17:42:00,56.0,29.0,-100.00,West,265,11.0,22.0,36,0.00,,,0.53,772.000000,,2013-04-20 17:42:00,
2013-04-20 17:52:00,56.0,29.0,-100.00,West,265,11.0,22.0,36,0.00,,,0.53,772.000000,,2013-04-20 17:52:00,
2013-04-20 18:02:00,56.0,29.0,-100.00,West,265,11.0,22.0,36,0.00,,,0.53,772.000000,,2013-04-20 18:02:00,
2013-04-20 18:32:00,57.0,28.0,-100.00,West,277,9.0,26.0,33,0.00,,,0.53,924.000000,,2013-04-20 18:32:00,
2013-04-20 18:42:00,57.0,28.0,-100.00,West,277,9.0,26.0,33,0.00,,,0.53,924.000000,,2013-04-20 18:42:00,
2013-04-20 18:53:00,57.0,28.0,-100.00,West,277,9.0,26.0,33,0.00,,,0.53,924.000000,,2013-04-20 18:53:00,
2013-04-20 19:02:00,57.0,28.0,-100.00,West,277,9.0,26.0,33,0.00,,,0.53,924.000000,,2013-04-20 19:02:00,
2013-04-20 19:32:00,55.0,26.0,-100.00,West,269,12.0,22.0,32,0.00,,,0.53,762.000000,,2013-04-20 19:32:00,
2013-04-20 19:42:00,55.0,26.0,-100.00,West,269,12.0,22.0,32,0.00,,,0.53,762.000000,,2013-04-20 19:42:00,
2013-04-20 19:52:00,55.0,26.0,-100.00,West,269,12.0,22.0,32,0.00,,,0.53,762.000000,,2013-04-20 19:52:00,
2013-04-20 20:02:00,55.0,26.0,-100.00,West,269,12.0,22.0,32,0.00,,,0.53,762.000000,,2013-04-20 20:02:00,
2013-04-20 20:32:00,58.0,25.0,-100.00,West,278,11.0,22.0,28,0.00,,,0.53,596.000000,,2013-04-20 20:32:00,
2013-04-20 20:42:00,58.0,25.0,-100.00,West,278,11.0,22.0,28,0.00,,,0.53,596.000000,,2013-04-20 20:42:00,
2013-04-20 20:52:00,58.0,25.0,-100.00,West,278,11.0,22.0,28,0.00,,,0.53,596.000000,,2013-04-20 20:52:00,
2013-04-20 21:02:00,58.0,25.0,-100.00,West,278,11.0,22.0,28,0.00,,,0.53,596.000000,,2013-04-20 21:02:00,
2013-04-20 21:33:00,57.0,24.0,-100.00,WNW,298,9.0,19.0,28,0.00,,,-99.99,475.000000,,2013-04-20 21:33:00,
2013-04-20 21:43:00,57.0,24.0,-100.00,WNW,298,9.0,19.0,28,0.00,,,-99.99,475.000000,,2013-04-20 21:43:00,
2013-04-20 21:53:00,57.0,24.0,-100.00,WNW,298,9.0,19.0,28,0.00,,,-99.99,475.000000,,2013-04-20 21:53:00,
2013-04-20 22:03:00,57.0,24.0,-100.00,WNW,298,9.0,19.0,28,0.00,,,-99.99,475.000000,,2013-04-20 22:03:00,
2013-04-20 22:33:00,57.0,22.0,-100.00,NW,306,8.0,19.0,26,0.00,,,0.53,287.000000,,2013-04-20 22:33:00,
2013-04-20 22:42:00,57.0,22.0,-100.00,NW,306,8.0,19.0,26,0.00,,,0.53,287.000000,,2013-04-20 22:42:00,
2013-04-20 22:53:00,57.0,22.0,-100.00,NW,306,8.0,19.0,26,0.00,,,0.53,287.000000,,2013-04-20 22:53:00,
2013-04-20 23:02:00,57.0,22.0,-100.00,NW,306,8.0,19.0,26,0.00,,,0.53,287.000000,,2013-04-20 23:02:00,
2013-04-20 23:32:00,55.0,23.0,-100.00,WNW,299,5.0,19.0,28,0.00,,,0.53,164.000000,,2013-04-20 23:32:00,
2013-04-20 23:42:00,55.0,23.0,-100.00,WNW,299,5.0,19.0,28,0.00,,,0.53,164.000000,,2013-04-20 23:42:00,
2013-04-20 23:53:00,55.0,23.0,-100.00,WNW,299,5.0,19.0,28,0.00,,,0.53,164.000000,,2013-04-20 23:53:00,